createdAt,value
2023-02-06T00:00:15.055Z,98.39
2023-02-06T00:01:15.030Z,98.29
2023-02-06T00:02:15.030Z,97.77
2023-02-06T00:03:15.022Z,97.88
2023-02-06T00:04:15.006Z,98.19
2023-02-06T00:05:15.076Z,98.25
2023-02-06T00:06:14.975Z,97.94
2023-02-06T00:07:14.980Z,98.19
2023-02-06T00:08:14.983Z,97.88
2023-02-06T00:09:14.979Z,97.62
2023-02-06T00:10:14.970Z,97.25
2023-02-06T00:11:14.960Z,97.20
2023-02-06T00:12:14.934Z,97.88
2023-02-06T00:13:14.932Z,97.88
2023-02-06T00:14:14.933Z,97.20
2023-02-06T00:15:14.941Z,98.29
2023-02-06T00:16:14.937Z,97.67
2023-02-06T00:17:14.914Z,97.88
2023-02-06T00:18:14.933Z,98.29
2023-02-06T00:19:14.929Z,97.83
2023-02-06T00:20:14.909Z,97.52
2023-02-06T00:21:14.897Z,97.25
2023-02-06T00:22:14.898Z,98.04
2023-02-06T00:23:14.887Z,98.29
2023-02-06T00:24:14.887Z,97.77
2023-02-06T00:25:14.886Z,97.77
2023-02-06T00:26:14.866Z,97.67
2023-02-06T00:27:14.854Z,97.88
2023-02-06T00:28:14.879Z,97.77
2023-02-06T00:29:14.864Z,97.77
2023-02-06T00:30:14.867Z,98.50
2023-02-06T00:31:14.969Z,97.88
2023-02-06T00:32:14.889Z,97.88
2023-02-06T00:33:14.867Z,97.83
2023-02-06T00:34:14.904Z,97.72
2023-02-06T00:35:14.825Z,97.10
2023-02-06T00:36:14.850Z,97.56
2023-02-06T00:37:14.817Z,98.19
2023-02-06T00:38:14.814Z,97.72
2023-02-06T00:39:14.829Z,97.88
2023-02-06T00:40:14.805Z,97.94
2023-02-06T00:41:14.818Z,98.04
2023-02-06T00:42:14.803Z,98.39
2023-02-06T00:43:14.794Z,97.94
2023-02-06T00:44:14.767Z,98.56
2023-02-06T00:45:14.777Z,97.83
2023-02-06T00:46:14.857Z,97.77
2023-02-06T00:47:14.788Z,97.94
2023-02-06T00:48:14.765Z,97.67
2023-02-06T00:49:14.767Z,97.72
2023-02-06T00:50:14.743Z,98.39
2023-02-06T00:51:14.752Z,98.14
2023-02-06T00:52:14.725Z,97.20
2023-02-06T00:53:14.723Z,97.41
2023-02-06T00:54:14.727Z,97.72
2023-02-06T00:55:14.730Z,97.72
2023-02-06T00:56:14.721Z,97.20
2023-02-06T00:57:14.704Z,97.88
2023-02-06T00:58:14.723Z,97.72
2023-02-06T00:59:14.691Z,97.72
2023-02-06T01:00:14.674Z,98.25
2023-02-06T01:01:14.721Z,97.72
2023-02-06T01:02:14.653Z,98.04
2023-02-06T01:03:14.674Z,97.41
2023-02-06T01:04:14.653Z,97.94
2023-02-06T01:05:14.648Z,98.56
2023-02-06T01:06:14.650Z,98.56
2023-02-06T01:07:14.638Z,97.94
2023-02-06T01:08:14.649Z,98.04
2023-02-06T01:09:14.621Z,97.98
2023-02-06T01:10:14.628Z,98.08
2023-02-06T01:11:14.616Z,98.25
2023-02-06T01:12:14.602Z,98.60
2023-02-06T01:13:14.636Z,98.50
2023-02-06T01:14:14.585Z,98.14
2023-02-06T01:15:14.593Z,98.19
2023-02-06T01:16:14.624Z,98.92
2023-02-06T01:17:14.578Z,98.60
2023-02-06T01:18:14.564Z,98.50
2023-02-06T01:19:14.579Z,98.50
2023-02-06T01:20:14.568Z,98.29
2023-02-06T01:21:14.569Z,98.50
2023-02-06T01:22:14.571Z,98.08
2023-02-06T01:23:14.538Z,97.77
2023-02-06T01:24:14.529Z,98.19
2023-02-06T01:25:14.557Z,98.50
2023-02-06T01:26:14.554Z,98.66
2023-02-06T01:27:14.511Z,98.82
2023-02-06T01:28:14.550Z,98.50
2023-02-06T01:29:14.518Z,98.25
2023-02-06T01:30:14.503Z,98.35
2023-02-06T01:31:14.532Z,98.19
2023-02-06T01:32:14.491Z,97.83
2023-02-06T01:33:14.477Z,98.08
2023-02-06T01:34:14.504Z,98.14
2023-02-06T01:35:14.459Z,97.72
2023-02-06T01:36:14.459Z,97.62
2023-02-06T01:37:14.464Z,97.88
2023-02-06T01:38:14.454Z,97.83
2023-02-06T01:39:14.468Z,97.31
2023-02-06T01:40:14.438Z,97.25
2023-02-06T01:41:14.428Z,98.04
2023-02-06T01:42:14.418Z,98.19
2023-02-06T01:43:14.427Z,98.50
2023-02-06T01:44:14.404Z,98.71
2023-02-06T01:45:14.424Z,99.29
2023-02-06T01:46:14.439Z,99.60
2023-02-06T01:47:14.404Z,98.87
2023-02-06T01:48:14.392Z,98.56
2023-02-06T01:49:14.391Z,98.35
2023-02-06T01:50:14.387Z,98.39
2023-02-06T01:51:14.399Z,98.25
2023-02-06T01:52:14.498Z,98.35
2023-02-06T01:53:14.377Z,98.14
2023-02-06T01:54:14.358Z,98.25
2023-02-06T01:55:14.359Z,98.56
2023-02-06T01:56:14.365Z,98.46
2023-02-06T01:57:14.338Z,98.77
2023-02-06T01:58:14.338Z,97.72
2023-02-06T01:59:14.336Z,97.14
2023-02-06T02:00:14.331Z,97.10
2023-02-06T02:01:14.329Z,97.77
2023-02-06T02:02:14.374Z,97.88
2023-02-06T02:03:14.311Z,98.29
2023-02-06T02:04:14.296Z,98.08
2023-02-06T02:05:14.309Z,98.66
2023-02-06T02:06:14.287Z,98.14
2023-02-06T02:07:14.281Z,98.29
2023-02-06T02:08:14.308Z,98.19
2023-02-06T02:09:14.446Z,98.82
2023-02-06T02:10:14.282Z,97.77
2023-02-06T02:11:14.302Z,98.35
2023-02-06T02:12:14.285Z,98.46
2023-02-06T02:13:14.256Z,98.14
2023-02-06T02:14:14.248Z,97.72
2023-02-06T02:15:14.270Z,98.04
2023-02-06T02:16:14.276Z,97.72
2023-02-06T02:17:14.236Z,97.72
2023-02-06T02:18:14.259Z,97.72
2023-02-06T02:19:14.230Z,97.35
2023-02-06T02:20:14.247Z,97.77
2023-02-06T02:21:14.217Z,98.66
2023-02-06T02:22:14.213Z,98.29
2023-02-06T02:23:14.209Z,98.39
2023-02-06T02:24:14.227Z,98.92
2023-02-06T02:25:14.194Z,99.54
2023-02-06T02:26:14.194Z,99.23
2023-02-06T02:27:14.172Z,99.02
2023-02-06T02:28:14.207Z,98.56
2023-02-06T02:29:14.159Z,98.60
2023-02-06T02:30:14.183Z,98.60
2023-02-06T02:31:14.220Z,98.35
2023-02-06T02:32:14.149Z,97.77
2023-02-06T02:33:14.138Z,98.19
2023-02-06T02:34:14.130Z,97.88
2023-02-06T02:35:14.133Z,98.50
2023-02-06T02:36:14.142Z,98.39
2023-02-06T02:37:14.120Z,98.29
2023-02-06T02:38:14.124Z,98.04
2023-02-06T02:39:14.104Z,97.83
2023-02-06T02:40:14.091Z,97.88
2023-02-06T02:41:14.143Z,98.71
2023-02-06T02:42:14.085Z,98.60
2023-02-06T02:43:14.104Z,99.17
2023-02-06T02:44:21.122Z,99.27
2023-02-06T02:45:14.073Z,99.85
2023-02-06T02:46:14.084Z,99.65
2023-02-06T02:47:14.081Z,99.75
2023-02-06T02:48:14.044Z,99.33
2023-02-06T02:49:14.068Z,99.13
2023-02-06T02:50:14.040Z,99.44
2023-02-06T02:51:14.028Z,99.48
2023-02-06T02:52:14.014Z,99.90
2023-02-06T02:53:14.045Z,99.54
2023-02-06T02:54:14.010Z,99.69
2023-02-06T02:55:14.003Z,99.54
2023-02-06T02:56:14.111Z,99.85
2023-02-06T02:57:13.996Z,99.96
2023-02-06T02:58:13.978Z,99.54
2023-02-06T02:59:14.005Z,99.02
2023-02-06T03:00:13.974Z,99.33
2023-02-06T03:01:13.981Z,99.33
2023-02-06T03:02:13.996Z,99.44
2023-02-06T03:03:13.957Z,98.77
2023-02-06T03:04:13.950Z,98.71
2023-02-06T03:05:13.967Z,98.87
2023-02-06T03:06:13.952Z,98.25
2023-02-06T03:07:13.927Z,98.04
2023-02-06T03:08:13.939Z,98.35
2023-02-06T03:09:13.912Z,98.14
2023-02-06T03:10:13.907Z,97.72
2023-02-06T03:11:13.949Z,98.04
2023-02-06T03:12:13.889Z,97.72
2023-02-06T03:13:13.890Z,97.72
2023-02-06T03:14:13.878Z,98.04
2023-02-06T03:15:13.877Z,97.20
2023-02-06T03:16:13.936Z,97.10
2023-02-06T03:17:13.869Z,96.89
2023-02-06T03:18:13.859Z,96.75
2023-02-06T03:19:13.850Z,96.89
2023-02-06T03:20:13.855Z,97.00
2023-02-06T03:21:13.865Z,97.27
2023-02-06T03:22:13.852Z,97.31
2023-02-06T03:23:13.834Z,97.00
2023-02-06T03:24:13.822Z,96.89
2023-02-06T03:25:13.846Z,97.00
2023-02-06T03:26:13.808Z,97.16
2023-02-06T03:27:13.835Z,97.16
2023-02-06T03:28:13.845Z,97.00
2023-02-06T03:29:13.791Z,97.31
2023-02-06T03:30:13.777Z,97.31
2023-02-06T03:31:13.791Z,97.62
2023-02-06T03:32:13.768Z,97.20
2023-02-06T03:33:13.759Z,97.72
2023-02-06T03:34:13.755Z,97.41
2023-02-06T03:35:13.766Z,98.04
2023-02-06T03:36:13.739Z,97.72
2023-02-06T03:37:13.739Z,97.72
2023-02-06T03:38:13.730Z,97.68
2023-02-06T03:39:13.721Z,97.00
2023-02-06T03:40:13.742Z,97.10
2023-02-06T03:41:13.722Z,97.00
2023-02-06T03:42:13.719Z,96.85
2023-02-06T03:44:46.750Z,97.52
2023-02-06T03:45:40.380Z,97.52
2023-02-06T03:46:40.231Z,97.41
2023-02-06T03:47:40.224Z,97.72
2023-02-06T03:48:40.204Z,97.78
2023-02-06T03:49:40.221Z,97.41
2023-02-06T03:50:40.207Z,97.52
2023-02-06T03:51:40.179Z,97.27
2023-02-06T03:52:40.191Z,97.58
2023-02-06T03:53:40.168Z,97.72
2023-02-06T03:54:40.174Z,98.14
2023-02-06T03:55:40.173Z,98.04
2023-02-06T03:56:40.163Z,98.50
2023-02-06T03:57:40.150Z,98.04
2023-02-06T03:59:50.573Z,98.14
2023-02-06T04:00:50.592Z,98.46
2023-02-06T04:01:50.569Z,98.25
2023-02-06T04:02:50.558Z,98.56
2023-02-06T04:03:50.552Z,98.56
2023-02-06T04:04:50.548Z,98.35
2023-02-06T04:05:50.549Z,97.94
2023-02-06T04:06:50.559Z,97.94
2023-02-06T04:07:50.531Z,97.94
2023-02-06T04:08:50.526Z,97.83
2023-02-06T04:09:50.521Z,97.37
2023-02-06T04:10:50.516Z,97.83
2023-02-06T04:11:50.503Z,97.68
2023-02-06T04:12:50.505Z,97.72
2023-02-06T04:13:50.507Z,97.68
2023-02-06T04:14:50.480Z,97.83
2023-02-06T04:15:50.480Z,97.94
2023-02-06T04:16:50.491Z,98.04
2023-02-06T04:17:59.840Z,97.83
2023-02-06T04:18:50.459Z,97.83
2023-02-06T04:19:50.477Z,97.10
2023-02-06T04:20:50.444Z,97.72
2023-02-06T04:21:50.447Z,97.72
2023-02-06T04:22:50.432Z,98.25
2023-02-06T04:23:50.441Z,98.04
2023-02-06T04:24:50.427Z,98.25
2023-02-06T04:25:50.439Z,98.25
2023-02-06T04:26:50.444Z,98.29
2023-02-06T04:27:50.448Z,98.14
2023-02-06T04:28:50.424Z,98.04
2023-02-06T04:29:50.400Z,98.39
2023-02-06T04:30:50.548Z,98.50
2023-02-06T04:31:50.390Z,98.66
2023-02-06T04:32:50.384Z,98.66
2023-02-06T04:33:50.395Z,98.29
2023-02-06T04:34:50.372Z,98.29
2023-02-06T04:35:50.360Z,98.35
2023-02-06T04:36:50.354Z,98.04
2023-02-06T04:37:50.363Z,98.14
2023-02-06T04:38:50.350Z,98.14
2023-02-06T04:39:50.364Z,98.04
2023-02-06T04:40:50.328Z,97.41
2023-02-06T04:41:50.324Z,97.41
2023-02-06T04:42:50.319Z,98.04
2023-02-06T04:43:50.353Z,97.83
2023-02-06T04:44:50.294Z,97.83
2023-02-06T04:45:50.321Z,97.83
2023-02-06T04:46:50.291Z,97.52
2023-02-06T04:47:50.286Z,96.79
2023-02-06T04:48:50.276Z,97.10
2023-02-06T04:49:50.307Z,96.79
2023-02-06T04:50:50.271Z,97.10
2023-02-06T04:51:50.265Z,97.06
2023-02-06T04:52:50.286Z,97.00
2023-02-06T04:53:50.257Z,96.53
2023-02-06T04:54:50.239Z,96.89
2023-02-06T04:55:50.254Z,96.53
2023-02-06T04:56:50.227Z,96.58
2023-02-06T04:57:50.246Z,97.00
2023-02-06T04:58:50.227Z,97.20
2023-02-06T04:59:50.221Z,97.52
2023-02-06T05:00:50.206Z,97.58
2023-02-06T05:01:50.229Z,97.00
2023-02-06T05:02:50.238Z,97.31
2023-02-06T05:03:50.361Z,97.31
2023-02-06T05:04:50.177Z,98.39
2023-02-06T05:05:50.170Z,97.77
2023-02-06T05:06:50.170Z,98.25
2023-02-06T05:07:50.155Z,98.14
2023-02-06T05:08:50.170Z,98.14
2023-02-06T05:09:50.144Z,97.83
2023-02-06T05:10:50.138Z,98.14
2023-02-06T05:11:50.133Z,97.31
2023-02-06T05:12:50.119Z,98.04
2023-02-06T05:13:50.126Z,97.94
2023-02-06T05:14:50.125Z,97.62
2023-02-06T05:15:50.130Z,98.04
2023-02-06T05:16:50.120Z,97.52
2023-02-06T05:17:50.087Z,97.52
2023-02-06T05:18:50.079Z,97.83
2023-02-06T05:19:50.103Z,97.62
2023-02-06T05:20:50.100Z,97.62
2023-02-06T05:21:50.062Z,97.20
2023-02-06T05:22:50.049Z,97.47
2023-02-06T05:23:50.051Z,97.00
2023-02-06T05:24:50.041Z,96.95
2023-02-06T05:25:50.056Z,97.10
2023-02-06T05:26:50.038Z,97.31
2023-02-06T05:27:50.050Z,97.31
2023-02-06T05:28:50.033Z,97.52
2023-02-06T05:29:50.039Z,97.41
2023-02-06T05:30:50.057Z,97.94
2023-02-06T05:31:50.054Z,97.10
2023-02-06T05:32:50.003Z,97.83
2023-02-06T05:33:52.216Z,97.62
2023-02-06T05:34:50.017Z,97.62
2023-02-06T05:35:49.982Z,97.56
2023-02-06T05:36:49.983Z,98.19
2023-02-06T05:37:49.972Z,98.14
2023-02-06T05:38:49.969Z,98.29
2023-02-06T05:39:49.951Z,98.50
2023-02-06T05:40:49.941Z,98.50
2023-02-06T05:41:49.937Z,98.08
2023-02-06T05:42:49.944Z,98.08
2023-02-06T05:43:49.915Z,98.60
2023-02-06T05:44:49.922Z,99.02
2023-02-06T05:45:49.913Z,99.44
2023-02-06T05:46:49.901Z,99.65
2023-02-06T05:47:49.898Z,99.54
2023-02-06T05:48:49.912Z,98.82
2023-02-06T05:49:49.898Z,98.92
2023-02-06T05:50:49.879Z,99.65
2023-02-06T05:51:49.873Z,99.65
2023-02-06T05:52:49.877Z,98.71
2023-02-06T05:53:49.867Z,98.50
2023-02-06T05:54:49.885Z,98.65
2023-02-06T05:55:49.857Z,99.48
2023-02-06T05:56:49.866Z,99.27
2023-02-06T05:57:49.839Z,99.23
2023-02-06T05:58:49.831Z,99.33
2023-02-06T05:59:49.862Z,99.13
2023-02-06T06:00:49.826Z,99.27
2023-02-06T06:01:49.817Z,99.23
2023-02-06T06:02:49.815Z,98.71
2023-02-06T06:03:49.872Z,98.29
2023-02-06T06:04:49.819Z,98.60
2023-02-06T06:05:49.825Z,99.65
2023-02-06T06:06:49.778Z,99.27
2023-02-06T06:07:49.780Z,99.02
2023-02-06T06:08:49.773Z,99.33
2023-02-06T06:09:49.759Z,99.27
2023-02-06T06:10:49.756Z,99.23
2023-02-06T06:11:49.807Z,99.33
2023-02-06T06:12:49.742Z,99.44
2023-02-06T06:13:49.746Z,99.54
2023-02-06T06:14:49.730Z,99.27
2023-02-06T06:15:49.767Z,99.23
2023-02-06T06:16:49.718Z,99.13
2023-02-06T06:17:49.741Z,99.13
2023-02-06T06:18:49.708Z,98.92
2023-02-06T06:19:49.714Z,98.60
2023-02-06T06:20:49.721Z,98.60
2023-02-06T06:21:49.698Z,98.29
2023-02-06T06:22:49.696Z,98.60
2023-02-06T06:23:49.677Z,98.08
2023-02-06T06:24:49.677Z,97.77
2023-02-06T06:25:49.691Z,98.29
2023-02-06T06:26:49.657Z,97.77
2023-02-06T06:27:49.668Z,97.94
2023-02-06T06:28:49.638Z,97.88
2023-02-06T06:29:49.652Z,97.56
2023-02-06T06:30:49.677Z,98.29
2023-02-06T06:31:49.669Z,98.29
2023-02-06T06:32:49.614Z,98.60
2023-02-06T06:33:49.626Z,98.29
2023-02-06T06:34:49.608Z,98.60
2023-02-06T06:35:49.619Z,98.29
2023-02-06T06:36:49.612Z,98.71
2023-02-06T06:37:49.594Z,98.50
2023-02-06T06:38:49.584Z,98.82
2023-02-06T06:39:49.586Z,98.75
2023-02-06T06:40:49.566Z,99.44
2023-02-06T06:41:49.558Z,99.85
2023-02-06T06:42:49.569Z,99.99
2023-02-06T06:43:51.467Z,99.99
2023-02-06T06:44:49.545Z,98.99
2023-02-06T06:45:49.557Z,97.01
2023-02-06T06:46:49.547Z,96.18
2023-02-06T06:47:49.521Z,95.45
2023-02-06T06:48:49.514Z,95.66
2023-02-06T06:49:49.507Z,95.39
2023-02-06T06:50:49.504Z,95.56
2023-02-06T06:51:49.500Z,95.70
2023-02-06T06:52:49.527Z,95.81
2023-02-06T06:53:49.488Z,95.60
2023-02-06T06:54:50.902Z,95.70
2023-02-06T06:55:49.563Z,95.60
2023-02-06T06:56:49.465Z,95.70
2023-02-06T06:57:49.457Z,95.95
2023-02-06T06:58:49.450Z,96.48
2023-02-06T06:59:49.448Z,96.58
2023-02-06T07:00:49.475Z,96.89
2023-02-06T07:01:49.431Z,97.00
2023-02-06T07:02:49.490Z,97.20
2023-02-06T07:03:49.440Z,97.72
2023-02-06T07:04:49.427Z,98.14
2023-02-06T07:05:50.775Z,97.83
2023-02-06T07:06:49.436Z,98.25
2023-02-06T07:07:49.416Z,97.31
2023-02-06T07:08:49.391Z,97.62
2023-02-06T07:09:49.380Z,97.72
2023-02-06T07:10:49.378Z,98.29
2023-02-06T07:11:49.368Z,98.14
2023-02-06T07:12:49.371Z,97.98
2023-02-06T07:13:49.392Z,98.08
2023-02-06T07:14:49.351Z,98.39
2023-02-06T07:15:49.358Z,98.29
2023-02-06T07:16:49.343Z,97.77
2023-02-06T07:17:49.366Z,98.29
2023-02-06T07:18:49.327Z,97.46
2023-02-06T07:19:49.320Z,98.19
2023-02-06T07:20:49.313Z,98.08
2023-02-06T07:21:49.326Z,97.98
2023-02-06T07:22:49.313Z,98.60
2023-02-06T07:23:49.302Z,98.56
2023-02-06T07:24:49.311Z,97.83
2023-02-06T07:25:49.303Z,97.72
2023-02-06T07:26:49.275Z,97.62
2023-02-06T07:27:49.431Z,97.62
2023-02-06T07:28:49.268Z,97.52
2023-02-06T07:29:49.318Z,97.72
2023-02-06T07:30:49.292Z,97.83
2023-02-06T07:31:49.276Z,98.25
2023-02-06T07:32:49.269Z,97.72
2023-02-06T07:33:49.242Z,97.83
2023-02-06T07:34:49.236Z,97.62
2023-02-06T07:35:49.260Z,97.41
2023-02-06T07:36:49.229Z,97.58
2023-02-06T07:37:49.213Z,97.16
2023-02-06T07:38:49.210Z,96.89
2023-02-06T07:39:49.209Z,96.53
2023-02-06T07:40:49.195Z,96.79
2023-02-06T07:41:49.210Z,97.16
2023-02-06T07:42:49.191Z,97.31
2023-02-06T07:43:49.210Z,96.48
2023-02-06T07:44:49.177Z,96.22
2023-02-06T07:45:49.204Z,96.01
2023-02-06T07:46:49.190Z,96.12
2023-02-06T07:47:49.168Z,94.82
2023-02-06T07:48:49.149Z,94.76
2023-02-06T07:49:49.145Z,95.08
2023-02-06T07:50:49.162Z,94.35
2023-02-06T07:51:49.152Z,94.56
2023-02-06T07:52:49.143Z,95.29
2023-02-06T07:53:49.129Z,95.45
2023-02-06T07:54:49.118Z,94.66
2023-02-06T07:55:49.124Z,94.24
2023-02-06T07:56:49.107Z,94.87
2023-02-06T07:57:49.143Z,94.14
2023-02-06T07:58:49.100Z,94.35
2023-02-06T07:59:49.106Z,94.72
2023-02-06T08:00:49.125Z,94.45
2023-02-06T08:01:49.091Z,94.20
2023-02-06T08:02:49.077Z,94.56
2023-02-06T08:03:49.100Z,94.93
2023-02-06T08:04:49.063Z,94.72
2023-02-06T08:05:49.080Z,93.68
2023-02-06T08:06:49.069Z,93.37
2023-02-06T08:07:49.055Z,93.68
2023-02-06T08:08:49.052Z,93.58
2023-02-06T08:09:49.046Z,93.62
2023-02-06T08:10:49.033Z,93.99
2023-02-06T08:11:49.071Z,93.41
2023-02-06T08:12:49.039Z,93.93
2023-02-06T08:13:49.018Z,94.35
2023-02-06T08:14:49.004Z,94.24
2023-02-06T08:15:49.029Z,93.83
2023-02-06T08:16:49.027Z,93.37
2023-02-06T08:17:48.986Z,92.99
2023-02-06T08:18:48.977Z,92.79
2023-02-06T08:19:48.984Z,91.64
2023-02-06T08:20:48.971Z,91.85
2023-02-06T08:21:48.986Z,92.37
2023-02-06T08:22:48.961Z,91.64
2023-02-06T08:23:48.982Z,91.85
2023-02-06T08:24:48.946Z,92.99
2023-02-06T08:25:48.952Z,92.31
2023-02-06T08:26:48.964Z,91.53
2023-02-06T08:27:48.948Z,92.31
2023-02-06T08:28:48.914Z,91.78
2023-02-06T08:29:48.914Z,92.99
2023-02-06T08:30:49.048Z,93.87
2023-02-06T08:31:48.961Z,93.62
2023-02-06T08:32:48.898Z,92.79
2023-02-06T08:33:48.881Z,92.58
2023-02-06T08:34:48.876Z,91.75
2023-02-06T08:35:48.886Z,91.85
2023-02-06T08:36:48.877Z,91.33
2023-02-06T08:37:48.878Z,92.27
2023-02-06T08:38:48.854Z,92.99
2023-02-06T08:39:48.882Z,93.16
2023-02-06T08:40:48.838Z,92.99
2023-02-06T08:41:48.841Z,92.27
2023-02-06T08:42:48.835Z,92.68
2023-02-06T08:43:48.834Z,91.75
2023-02-06T08:44:48.822Z,91.39
2023-02-06T08:45:48.874Z,90.19
2023-02-06T08:46:52.291Z,90.56
2023-02-06T08:47:49.800Z,89.31
2023-02-06T08:48:48.812Z,90.97
2023-02-06T08:49:48.796Z,91.28
2023-02-06T08:50:48.812Z,90.93
2023-02-06T08:51:48.771Z,90.93
2023-02-06T08:52:48.779Z,91.35
2023-02-06T08:53:48.778Z,90.83
2023-02-06T08:54:48.784Z,89.69
2023-02-06T08:55:48.770Z,89.64
2023-02-06T08:56:48.791Z,89.69
2023-02-06T08:57:48.759Z,89.33
2023-02-06T08:58:48.734Z,89.58
2023-02-06T08:59:48.729Z,88.81
2023-02-06T09:00:48.723Z,88.19
2023-02-06T09:01:48.775Z,89.75
2023-02-06T09:02:48.768Z,88.40
2023-02-06T09:03:48.705Z,88.25
2023-02-06T09:04:48.695Z,88.98
2023-02-06T09:05:48.707Z,88.42
2023-02-06T09:06:48.704Z,87.48
2023-02-06T09:07:48.676Z,86.82
2023-02-06T09:08:48.679Z,86.36
2023-02-06T09:09:48.655Z,86.78
2023-02-06T09:10:48.652Z,86.12
2023-02-06T09:11:48.681Z,84.46
2023-02-06T09:12:48.635Z,84.11
2023-02-06T09:13:49.447Z,82.76
2023-02-06T09:14:48.685Z,83.28
2023-02-06T09:15:48.638Z,82.76
2023-02-06T09:16:48.605Z,82.51
2023-02-06T09:17:48.601Z,82.31
2023-02-06T09:18:48.674Z,82.20
2023-02-06T09:19:48.849Z,81.75
2023-02-06T09:20:48.595Z,80.88
2023-02-06T09:21:48.564Z,80.64
2023-02-06T09:22:48.589Z,80.19
2023-02-06T09:23:48.561Z,80.05
2023-02-06T09:24:48.545Z,78.98
2023-02-06T09:25:48.561Z,76.77
2023-02-06T09:27:00.933Z,74.77
2023-02-06T09:27:49.590Z,74.19
2023-02-06T09:28:48.527Z,71.85
2023-02-06T09:29:48.525Z,71.72
2023-02-06T09:30:48.666Z,72.58
2023-02-06T09:31:48.511Z,70.25
2023-02-06T09:32:48.517Z,67.23
2023-02-06T09:33:48.498Z,66.01
2023-02-06T09:34:49.277Z,65.92
2023-02-06T09:35:48.495Z,66.78
2023-02-06T09:36:48.478Z,63.07
2023-02-06T09:37:48.477Z,59.75
2023-02-06T09:38:48.496Z,56.35
2023-02-06T09:39:48.486Z,56.76
2023-02-06T09:40:48.461Z,54.79
2023-02-06T09:41:48.453Z,55.38
2023-02-06T09:42:48.473Z,56.45
2023-02-06T09:43:48.437Z,51.44
2023-02-06T09:44:48.430Z,51.49
2023-02-06T09:45:48.436Z,49.74
2023-02-06T09:46:48.419Z,48.88
2023-02-06T09:47:48.427Z,49.39
2023-02-06T09:48:48.425Z,49.55
2023-02-06T09:49:48.399Z,48.46
2023-02-06T09:50:48.418Z,48.28
2023-02-06T09:51:48.501Z,47.55
2023-02-06T09:52:48.387Z,48.70
2023-02-06T09:53:48.388Z,43.38
2023-02-06T09:54:48.375Z,46.18
2023-02-06T09:55:48.365Z,48.18
2023-02-06T09:56:48.385Z,51.25
2023-02-06T09:57:48.377Z,45.71
2023-02-06T09:58:48.364Z,49.28
2023-02-06T10:01:02.543Z,45.10
2023-02-06T10:02:02.578Z,42.09
2023-02-06T10:03:02.563Z,46.39
2023-02-06T10:04:02.606Z,48.80
2023-02-06T10:05:02.548Z,48.14
2023-02-06T10:06:02.555Z,47.59
2023-02-06T10:07:02.556Z,45.64
2023-02-06T10:08:02.552Z,47.67
2023-02-06T10:09:02.519Z,45.59
2023-02-06T10:10:02.513Z,47.43
2023-02-06T10:11:02.513Z,47.97
2023-02-06T10:12:02.497Z,43.10
2023-02-06T10:13:02.504Z,42.43
2023-02-06T10:14:02.508Z,45.46
2023-02-06T10:15:02.469Z,44.77
2023-02-06T10:16:02.499Z,46.90
2023-02-06T10:17:02.482Z,45.33
2023-02-06T10:18:02.464Z,47.82
2023-02-06T10:19:02.463Z,41.52
2023-02-06T10:20:02.456Z,43.04
2023-02-06T10:21:02.427Z,43.99
2023-02-06T10:22:02.424Z,42.52
2023-02-06T10:23:02.411Z,41.77
2023-02-06T10:24:02.404Z,43.46
2023-02-06T10:25:02.418Z,42.76
2023-02-06T10:26:02.408Z,43.52
2023-02-06T10:27:02.386Z,42.88
2023-02-06T10:28:02.456Z,41.36
2023-02-06T10:29:02.372Z,41.65
2023-02-06T10:30:02.360Z,40.54
2023-02-06T10:31:02.474Z,41.61
2023-02-06T10:32:02.361Z,42.61
2023-02-06T10:33:02.350Z,41.10
2023-02-06T10:34:02.347Z,42.80
2023-02-06T10:35:02.346Z,45.04
2023-02-06T10:36:02.331Z,42.54
2023-02-06T10:37:02.319Z,47.07
2023-02-06T10:38:02.309Z,46.09
2023-02-06T10:39:02.327Z,48.63
2023-02-06T10:40:02.322Z,48.67
2023-02-06T10:41:02.295Z,50.05
2023-02-06T10:42:02.282Z,56.94
2023-02-06T10:43:02.296Z,53.54
2023-02-06T10:44:02.294Z,54.44
2023-02-06T10:45:18.474Z,57.15
2023-02-06T10:46:03.289Z,58.23
2023-02-06T10:47:02.357Z,59.57
2023-02-06T10:48:02.273Z,63.22
2023-02-06T10:49:02.224Z,63.02
2023-02-06T10:50:02.243Z,63.56
2023-02-06T10:51:02.249Z,63.02
2023-02-06T10:52:02.209Z,64.07
2023-02-06T10:53:02.215Z,64.75
2023-02-06T10:54:02.201Z,64.72
2023-02-06T10:55:02.188Z,64.96
2023-02-06T10:56:02.216Z,65.40
2023-02-06T10:57:02.177Z,66.36
2023-02-06T10:58:02.186Z,64.96
2023-02-06T10:59:02.156Z,63.43
2023-02-06T11:00:02.159Z,63.52
2023-02-06T11:01:02.193Z,65.22
2023-02-06T11:02:02.173Z,61.64
2023-02-06T11:03:07.727Z,55.13
2023-02-06T11:04:03.138Z,53.59
2023-02-06T11:05:02.113Z,56.05
2023-02-06T11:06:02.115Z,55.54
2023-02-06T11:07:02.102Z,53.27
2023-02-06T11:08:02.116Z,51.74
2023-02-06T11:09:02.084Z,50.42
2023-02-06T11:10:02.110Z,47.92
2023-02-06T11:11:02.077Z,47.86
2023-02-06T11:12:02.080Z,46.23
2023-02-06T11:13:02.101Z,47.45
2023-02-06T11:14:02.062Z,47.88
2023-02-06T11:15:02.045Z,52.24
2023-02-06T11:16:02.068Z,56.87
2023-02-06T11:17:02.057Z,60.13
2023-02-06T11:18:02.023Z,60.05
2023-02-06T11:19:02.012Z,61.52
2023-02-06T11:20:02.031Z,61.58
2023-02-06T11:21:01.998Z,62.74
2023-02-06T11:22:01.986Z,63.18
2023-02-06T11:23:02.004Z,60.89
2023-02-06T11:24:01.999Z,61.25
2023-02-06T11:25:01.973Z,63.00
2023-02-06T11:26:01.964Z,61.57
2023-02-06T11:27:01.970Z,57.12
2023-02-06T11:28:01.997Z,57.61
2023-02-06T11:29:01.948Z,55.33
2023-02-06T11:30:02.004Z,55.74
2023-02-06T11:31:02.013Z,57.40
2023-02-06T11:32:01.975Z,54.87
2023-02-06T11:33:04.663Z,52.27
2023-02-06T11:34:01.919Z,52.83
2023-02-06T11:35:01.909Z,52.53
2023-02-06T11:36:01.902Z,52.06
2023-02-06T11:37:01.921Z,54.16
2023-02-06T11:38:02.864Z,55.23
2023-02-06T11:39:01.913Z,55.79
2023-02-06T11:40:01.930Z,55.10
2023-02-06T11:41:01.882Z,54.61
2023-02-06T11:42:01.872Z,57.28
2023-02-06T11:43:01.851Z,57.15
2023-02-06T11:44:01.836Z,57.87
2023-02-06T11:45:01.829Z,55.36
2023-02-06T11:46:01.920Z,57.13
2023-02-06T11:47:01.849Z,59.70
2023-02-06T11:48:01.829Z,60.11
2023-02-06T11:49:01.811Z,60.21
2023-02-06T11:50:01.806Z,59.65
2023-02-06T11:51:01.825Z,61.09
2023-02-06T11:52:01.869Z,61.37
2023-02-06T11:53:01.810Z,59.08
2023-02-06T11:54:01.778Z,59.77
2023-02-06T11:55:01.811Z,60.88
2023-02-06T11:56:01.773Z,57.79
2023-02-06T11:57:01.760Z,59.88
2023-02-06T11:58:01.778Z,59.26
2023-02-06T11:59:01.758Z,60.49
2023-02-06T12:00:01.790Z,60.57
2023-02-06T12:01:01.737Z,63.47
2023-02-06T12:02:01.785Z,61.32
2023-02-06T12:03:01.718Z,61.62
2023-02-06T12:04:01.736Z,59.31
2023-02-06T12:05:01.717Z,60.83
2023-02-06T12:06:03.111Z,60.50
2023-02-06T12:07:01.705Z,63.22
2023-02-06T12:08:01.733Z,61.47
2023-02-06T12:09:01.720Z,62.53
2023-02-06T12:10:01.705Z,62.23
2023-02-06T12:11:01.679Z,62.38
2023-02-06T12:12:01.676Z,63.72
2023-02-06T12:13:01.673Z,63.72
2023-02-06T12:14:01.660Z,63.59
2023-02-06T12:15:13.866Z,64.54
2023-02-06T12:16:02.660Z,65.33
2023-02-06T12:17:01.644Z,65.53
2023-02-06T12:18:01.648Z,65.88
2023-02-06T12:19:01.622Z,65.88
2023-02-06T12:20:01.642Z,66.11
2023-02-06T12:21:01.620Z,66.94
2023-02-06T12:22:01.629Z,66.31
2023-02-06T12:23:01.617Z,66.80
2023-02-06T12:24:01.595Z,66.15
2023-02-06T12:25:01.604Z,66.36
2023-02-06T12:26:01.629Z,64.81
2023-02-06T12:27:01.586Z,64.71
2023-02-06T12:28:01.640Z,66.36
2023-02-06T12:29:01.561Z,65.59
2023-02-06T12:30:01.555Z,66.42
2023-02-06T12:31:01.697Z,67.07
2023-02-06T12:32:01.584Z,66.58
2023-02-06T12:33:01.594Z,67.93
2023-02-06T12:34:01.548Z,68.34
2023-02-06T12:35:01.530Z,68.06
2023-02-06T12:36:01.532Z,67.75
2023-02-06T12:37:01.507Z,69.71
2023-02-06T12:38:01.548Z,69.40
2023-02-06T12:39:01.491Z,69.33
2023-02-06T12:40:01.513Z,70.09
2023-02-06T12:41:01.471Z,71.61
2023-02-06T12:42:01.466Z,71.84
2023-02-06T12:43:01.473Z,72.64
2023-02-06T12:44:01.454Z,73.36
2023-02-06T12:45:01.465Z,72.88
2023-02-06T12:46:01.474Z,70.92
2023-02-06T12:47:01.447Z,71.64
2023-02-06T12:48:01.429Z,72.67
2023-02-06T12:49:01.429Z,72.98
2023-02-06T12:50:01.497Z,74.05
2023-02-06T12:51:01.426Z,73.29
2023-02-06T12:52:01.412Z,73.08
2023-02-06T12:53:01.392Z,72.91
2023-02-06T12:54:01.399Z,74.08
2023-02-06T12:55:01.377Z,73.77
2023-02-06T12:56:01.396Z,73.98